sensor_id;sensor_type;location;lat;lon;timestamp;temperature;humidity
37560;DHT22;23398;50.928;7.084;2024-03-17T00:00:30;8.70;78.80
37560;DHT22;23398;50.928;7.084;2024-03-17T00:02:56;8.70;79.00
37560;DHT22;23398;50.928;7.084;2024-03-17T00:05:22;8.60;79.10
37560;DHT22;23398;50.928;7.084;2024-03-17T00:07:47;8.60;79.50
37560;DHT22;23398;50.928;7.084;2024-03-17T00:10:13;8.60;79.80
37560;DHT22;23398;50.928;7.084;2024-03-17T00:12:40;8.50;80.00
37560;DHT22;23398;50.928;7.084;2024-03-17T00:15:06;8.50;80.10
37560;DHT22;23398;50.928;7.084;2024-03-17T00:17:32;8.50;80.20
37560;DHT22;23398;50.928;7.084;2024-03-17T00:20:00;8.50;80.30
37560;DHT22;23398;50.928;7.084;2024-03-17T00:22:28;8.40;80.40
37560;DHT22;23398;50.928;7.084;2024-03-17T00:24:54;8.40;80.20
37560;DHT22;23398;50.928;7.084;2024-03-17T00:27:19;8.40;80.20
37560;DHT22;23398;50.928;7.084;2024-03-17T00:29:45;8.40;80.10
37560;DHT22;23398;50.928;7.084;2024-03-17T00:32:10;8.40;80.00
37560;DHT22;23398;50.928;7.084;2024-03-17T00:34:37;8.30;80.10
37560;DHT22;23398;50.928;7.084;2024-03-17T00:37:02;8.30;80.50
37560;DHT22;23398;50.928;7.084;2024-03-17T00:39:28;8.30;80.90
37560;DHT22;23398;50.928;7.084;2024-03-17T00:41:53;8.20;81.30
37560;DHT22;23398;50.928;7.084;2024-03-17T00:44:19;8.20;81.50
37560;DHT22;23398;50.928;7.084;2024-03-17T00:46:45;8.20;81.60
37560;DHT22;23398;50.928;7.084;2024-03-17T00:49:11;8.20;81.40
37560;DHT22;23398;50.928;7.084;2024-03-17T00:51:37;8.20;81.20
37560;DHT22;23398;50.928;7.084;2024-03-17T00:54:03;8.10;81.00
37560;DHT22;23398;50.928;7.084;2024-03-17T00:56:28;8.10;80.90
37560;DHT22;23398;50.928;7.084;2024-03-17T00:58:54;8.10;80.90
37560;DHT22;23398;50.928;7.084;2024-03-17T01:01:19;8.10;80.90
37560;DHT22;23398;50.928;7.084;2024-03-17T01:03:48;8.00;80.80
37560;DHT22;23398;50.928;7.084;2024-03-17T01:06:13;8.00;80.90
37560;DHT22;23398;50.928;7.084;2024-03-17T01:08:39;7.90;80.50
37560;DHT22;23398;50.928;7.084;2024-03-17T01:11:04;7.90;80.40
37560;DHT22;23398;50.928;7.084;2024-03-17T01:13:34;7.90;80.60
37560;DHT22;23398;50.928;7.084;2024-03-17T01:16:00;7.80;80.90
37560;DHT22;23398;50.928;7.084;2024-03-17T01:18:26;7.80;81.40
37560;DHT22;23398;50.928;7.084;2024-03-17T01:20:52;7.80;81.50
37560;DHT22;23398;50.928;7.084;2024-03-17T01:23:17;7.70;81.30
37560;DHT22;23398;50.928;7.084;2024-03-17T01:25:43;7.70;81.30
37560;DHT22;23398;50.928;7.084;2024-03-17T01:28:09;7.70;81.40
37560;DHT22;23398;50.928;7.084;2024-03-17T01:30:34;7.70;81.50
37560;DHT22;23398;50.928;7.084;2024-03-17T01:33:00;7.60;81.50
37560;DHT22;23398;50.928;7.084;2024-03-17T01:35:26;7.60;81.70
37560;DHT22;23398;50.928;7.084;2024-03-17T01:37:52;7.50;82.10
37560;DHT22;23398;50.928;7.084;2024-03-17T01:40:17;7.50;82.50
37560;DHT22;23398;50.928;7.084;2024-03-17T01:42:43;7.40;82.80
37560;DHT22;23398;50.928;7.084;2024-03-17T01:45:29;7.50;82.90
37560;DHT22;23398;50.928;7.084;2024-03-17T01:47:56;7.40;84.10
37560;DHT22;23398;50.928;7.084;2024-03-17T01:50:32;7.40;82.70
37560;DHT22;23398;50.928;7.084;2024-03-17T01:53:01;7.30;83.10
37560;DHT22;23398;50.928;7.084;2024-03-17T01:55:28;7.30;82.40
37560;DHT22;23398;50.928;7.084;2024-03-17T01:57:54;7.30;82.00
37560;DHT22;23398;50.928;7.084;2024-03-17T02:00:20;7.20;81.90
37560;DHT22;23398;50.928;7.084;2024-03-17T02:02:46;7.20;81.90
37560;DHT22;23398;50.928;7.084;2024-03-17T02:05:12;7.20;82.10
37560;DHT22;23398;50.928;7.084;2024-03-17T02:07:38;7.10;82.30
37560;DHT22;23398;50.928;7.084;2024-03-17T02:10:04;7.10;82.40
37560;DHT22;23398;50.928;7.084;2024-03-17T02:12:31;7.00;82.40
37560;DHT22;23398;50.928;7.084;2024-03-17T02:14:59;7.00;82.50
37560;DHT22;23398;50.928;7.084;2024-03-17T02:17:25;7.00;82.90
37560;DHT22;23398;50.928;7.084;2024-03-17T02:19:51;7.00;82.80
37560;DHT22;23398;50.928;7.084;2024-03-17T02:22:17;6.90;83.00
37560;DHT22;23398;50.928;7.084;2024-03-17T02:24:43;6.90;83.10
37560;DHT22;23398;50.928;7.084;2024-03-17T02:27:09;6.80;83.00
37560;DHT22;23398;50.928;7.084;2024-03-17T02:29:35;6.80;83.00
37560;DHT22;23398;50.928;7.084;2024-03-17T02:32:07;6.80;83.80
37560;DHT22;23398;50.928;7.084;2024-03-17T02:34:37;6.80;83.20
37560;DHT22;23398;50.928;7.084;2024-03-17T02:37:04;6.70;84.40
37560;DHT22;23398;50.928;7.084;2024-03-17T02:39:31;6.70;83.50
37560;DHT22;23398;50.928;7.084;2024-03-17T02:42:06;6.70;83.50
37560;DHT22;23398;50.928;7.084;2024-03-17T02:44:32;6.70;83.60
37560;DHT22;23398;50.928;7.084;2024-03-17T02:47:02;6.60;83.80
37560;DHT22;23398;50.928;7.084;2024-03-17T02:49:34;6.60;84.40
37560;DHT22;23398;50.928;7.084;2024-03-17T02:52:03;6.60;84.00
37560;DHT22;23398;50.928;7.084;2024-03-17T02:54:30;6.50;84.70
37560;DHT22;23398;50.928;7.084;2024-03-17T02:56:56;6.50;83.80
37560;DHT22;23398;50.928;7.084;2024-03-17T02:59:21;6.50;83.70
37560;DHT22;23398;50.928;7.084;2024-03-17T03:01:47;6.50;83.50
37560;DHT22;23398;50.928;7.084;2024-03-17T03:04:12;6.40;83.30
37560;DHT22;23398;50.928;7.084;2024-03-17T03:06:38;6.40;83.20
37560;DHT22;23398;50.928;7.084;2024-03-17T03:09:04;6.40;83.50
37560;DHT22;23398;50.928;7.084;2024-03-17T03:11:35;6.30;83.80
37560;DHT22;23398;50.928;7.084;2024-03-17T03:14:00;6.30;84.00
37560;DHT22;23398;50.928;7.084;2024-03-17T03:16:27;6.20;84.10
37560;DHT22;23398;50.928;7.084;2024-03-17T03:18:53;6.20;84.10
37560;DHT22;23398;50.928;7.084;2024-03-17T03:21:19;6.20;84.30
37560;DHT22;23398;50.928;7.084;2024-03-17T03:23:47;6.20;84.60
37560;DHT22;23398;50.928;7.084;2024-03-17T03:26:13;6.10;85.00
37560;DHT22;23398;50.928;7.084;2024-03-17T03:28:38;6.10;85.00
37560;DHT22;23398;50.928;7.084;2024-03-17T03:31:04;6.10;84.80
37560;DHT22;23398;50.928;7.084;2024-03-17T03:33:30;6.10;84.80
37560;DHT22;23398;50.928;7.084;2024-03-17T03:35:56;6.10;85.10
37560;DHT22;23398;50.928;7.084;2024-03-17T03:38:22;6.00;85.30
37560;DHT22;23398;50.928;7.084;2024-03-17T03:40:48;6.00;85.70
37560;DHT22;23398;50.928;7.084;2024-03-17T03:43:14;6.00;85.70
37560;DHT22;23398;50.928;7.084;2024-03-17T03:45:40;6.00;85.40
37560;DHT22;23398;50.928;7.084;2024-03-17T03:48:07;6.00;85.00
37560;DHT22;23398;50.928;7.084;2024-03-17T03:50:34;5.90;84.50
37560;DHT22;23398;50.928;7.084;2024-03-17T03:53:00;5.90;84.20
37560;DHT22;23398;50.928;7.084;2024-03-17T03:55:25;5.90;84.00
37560;DHT22;23398;50.928;7.084;2024-03-17T03:57:51;5.90;83.70
37560;DHT22;23398;50.928;7.084;2024-03-17T04:00:20;5.80;83.50
37560;DHT22;23398;50.928;7.084;2024-03-17T04:02:53;5.70;83.50
37560;DHT22;23398;50.928;7.084;2024-03-17T04:05:19;5.70;83.80
37560;DHT22;23398;50.928;7.084;2024-03-17T04:07:46;5.70;83.90
37560;DHT22;23398;50.928;7.084;2024-03-17T04:10:13;5.70;84.10
37560;DHT22;23398;50.928;7.084;2024-03-17T04:12:39;5.60;84.10
37560;DHT22;23398;50.928;7.084;2024-03-17T04:15:04;5.60;84.00
37560;DHT22;23398;50.928;7.084;2024-03-17T04:17:32;5.60;84.40
37560;DHT22;23398;50.928;7.084;2024-03-17T04:19:57;5.50;84.70
37560;DHT22;23398;50.928;7.084;2024-03-17T04:22:23;5.50;85.00
37560;DHT22;23398;50.928;7.084;2024-03-17T04:24:49;5.50;85.20
37560;DHT22;23398;50.928;7.084;2024-03-17T04:27:22;5.50;85.20
37560;DHT22;23398;50.928;7.084;2024-03-17T04:29:49;5.50;85.60
37560;DHT22;23398;50.928;7.084;2024-03-17T04:32:15;5.40;85.10
37560;DHT22;23398;50.928;7.084;2024-03-17T04:34:40;5.40;85.20
37560;DHT22;23398;50.928;7.084;2024-03-17T04:37:06;5.40;85.60
37560;DHT22;23398;50.928;7.084;2024-03-17T04:39:32;5.40;86.00
37560;DHT22;23398;50.928;7.084;2024-03-17T04:41:57;5.40;86.00
37560;DHT22;23398;50.928;7.084;2024-03-17T04:44:23;5.40;86.00
37560;DHT22;23398;50.928;7.084;2024-03-17T04:46:49;5.40;86.10
37560;DHT22;23398;50.928;7.084;2024-03-17T04:49:14;5.10;86.00
37560;DHT22;23398;50.928;7.084;2024-03-17T04:51:40;5.40;86.80
37560;DHT22;23398;50.928;7.084;2024-03-17T04:54:05;5.40;87.20
37560;DHT22;23398;50.928;7.084;2024-03-17T04:56:32;5.40;87.50
37560;DHT22;23398;50.928;7.084;2024-03-17T04:58:58;5.40;87.90
37560;DHT22;23398;50.928;7.084;2024-03-17T05:01:24;5.40;88.10
37560;DHT22;23398;50.928;7.084;2024-03-17T05:03:53;5.40;88.50
37560;DHT22;23398;50.928;7.084;2024-03-17T05:06:18;5.40;89.30
37560;DHT22;23398;50.928;7.084;2024-03-17T05:08:44;5.50;89.10
37560;DHT22;23398;50.928;7.084;2024-03-17T05:11:10;5.50;89.40
37560;DHT22;23398;50.928;7.084;2024-03-17T05:13:37;5.50;89.70
37560;DHT22;23398;50.928;7.084;2024-03-17T05:16:06;5.50;89.90
37560;DHT22;23398;50.928;7.084;2024-03-17T05:18:31;5.50;90.00
37560;DHT22;23398;50.928;7.084;2024-03-17T05:21:03;5.60;90.00
37560;DHT22;23398;50.928;7.084;2024-03-17T05:23:30;5.60;90.20
37560;DHT22;23398;50.928;7.084;2024-03-17T05:25:56;5.60;90.20
37560;DHT22;23398;50.928;7.084;2024-03-17T05:28:23;5.70;90.30
37560;DHT22;23398;50.928;7.084;2024-03-17T05:30:48;5.70;90.30
37560;DHT22;23398;50.928;7.084;2024-03-17T05:33:19;5.70;90.70
37560;DHT22;23398;50.928;7.084;2024-03-17T05:35:57;5.70;90.50
37560;DHT22;23398;50.928;7.084;2024-03-17T05:38:27;5.80;91.30
37560;DHT22;23398;50.928;7.084;2024-03-17T05:41:02;5.80;90.90
37560;DHT22;23398;50.928;7.084;2024-03-17T05:43:29;5.80;91.40
37560;DHT22;23398;50.928;7.084;2024-03-17T05:46:02;5.90;91.20
37560;DHT22;23398;50.928;7.084;2024-03-17T05:48:28;5.90;91.60
37560;DHT22;23398;50.928;7.084;2024-03-17T05:50:54;6.00;91.40
37560;DHT22;23398;50.928;7.084;2024-03-17T05:53:21;6.00;91.50
37560;DHT22;23398;50.928;7.084;2024-03-17T05:55:49;6.10;91.70
37560;DHT22;23398;50.928;7.084;2024-03-17T05:58:15;6.20;91.70
37560;DHT22;23398;50.928;7.084;2024-03-17T06:00:41;6.20;91.80
37560;DHT22;23398;50.928;7.084;2024-03-17T06:03:08;6.30;91.90
37560;DHT22;23398;50.928;7.084;2024-03-17T06:05:35;6.30;91.80
37560;DHT22;23398;50.928;7.084;2024-03-17T06:08:02;6.40;91.70
37560;DHT22;23398;50.928;7.084;2024-03-17T06:10:32;6.40;91.70
37560;DHT22;23398;50.928;7.084;2024-03-17T06:12:58;6.50;91.90
37560;DHT22;23398;50.928;7.084;2024-03-17T06:15:24;6.50;91.70
37560;DHT22;23398;50.928;7.084;2024-03-17T06:17:51;6.60;91.90
37560;DHT22;23398;50.928;7.084;2024-03-17T06:20:24;6.60;92.10
37560;DHT22;23398;50.928;7.084;2024-03-17T06:22:55;6.70;92.50
37560;DHT22;23398;50.928;7.084;2024-03-17T06:25:21;6.80;92.30
37560;DHT22;23398;50.928;7.084;2024-03-17T06:27:52;6.80;92.30
37560;DHT22;23398;50.928;7.084;2024-03-17T06:30:18;6.90;92.40
37560;DHT22;23398;50.928;7.084;2024-03-17T06:32:45;7.00;92.10
37560;DHT22;23398;50.928;7.084;2024-03-17T06:35:14;7.00;92.10
37560;DHT22;23398;50.928;7.084;2024-03-17T06:37:44;7.10;92.20
37560;DHT22;23398;50.928;7.084;2024-03-17T06:40:13;7.20;91.90
37560;DHT22;23398;50.928;7.084;2024-03-17T06:42:39;7.30;92.10
37560;DHT22;23398;50.928;7.084;2024-03-17T06:45:05;7.30;92.20
37560;DHT22;23398;50.928;7.084;2024-03-17T06:47:36;7.40;92.10
37560;DHT22;23398;50.928;7.084;2024-03-17T06:50:03;7.50;92.20
37560;DHT22;23398;50.928;7.084;2024-03-17T06:52:29;7.60;92.50
37560;DHT22;23398;50.928;7.084;2024-03-17T06:54:56;7.70;92.90
37560;DHT22;23398;50.928;7.084;2024-03-17T06:57:23;7.80;93.30
37560;DHT22;23398;50.928;7.084;2024-03-17T06:59:49;8.00;93.80
37560;DHT22;23398;50.928;7.084;2024-03-17T07:02:14;8.20;94.10
37560;DHT22;23398;50.928;7.084;2024-03-17T07:04:43;8.40;94.40
37560;DHT22;23398;50.928;7.084;2024-03-17T07:07:09;8.60;94.40
37560;DHT22;23398;50.928;7.084;2024-03-17T07:09:34;8.90;94.20
37560;DHT22;23398;50.928;7.084;2024-03-17T07:12:00;9.20;93.70
37560;DHT22;23398;50.928;7.084;2024-03-17T07:14:26;9.40;93.40
37560;DHT22;23398;50.928;7.084;2024-03-17T07:16:52;9.70;93.10
37560;DHT22;23398;50.928;7.084;2024-03-17T07:19:18;10.00;91.20
37560;DHT22;23398;50.928;7.084;2024-03-17T07:21:44;10.30;92.70
37560;DHT22;23398;50.928;7.084;2024-03-17T07:24:09;10.70;93.30
37560;DHT22;23398;50.928;7.084;2024-03-17T07:26:35;11.20;92.00
37560;DHT22;23398;50.928;7.084;2024-03-17T07:29:00;11.70;91.60
37560;DHT22;23398;50.928;7.084;2024-03-17T07:31:26;12.20;92.00
37560;DHT22;23398;50.928;7.084;2024-03-17T07:33:52;12.80;92.00
37560;DHT22;23398;50.928;7.084;2024-03-17T07:36:17;13.60;91.40
37560;DHT22;23398;50.928;7.084;2024-03-17T07:38:43;14.30;90.50
37560;DHT22;23398;50.928;7.084;2024-03-17T07:41:09;15.20;87.80
37560;DHT22;23398;50.928;7.084;2024-03-17T07:43:37;16.00;83.90
37560;DHT22;23398;50.928;7.084;2024-03-17T07:46:07;16.90;80.00
37560;DHT22;23398;50.928;7.084;2024-03-17T07:48:36;17.80;75.70
37560;DHT22;23398;50.928;7.084;2024-03-17T07:51:07;18.50;74.00
37560;DHT22;23398;50.928;7.084;2024-03-17T07:53:37;19.30;70.50
37560;DHT22;23398;50.928;7.084;2024-03-17T07:56:11;20.00;67.90
37560;DHT22;23398;50.928;7.084;2024-03-17T07:58:39;20.60;66.70
37560;DHT22;23398;50.928;7.084;2024-03-17T08:01:11;21.20;64.70
37560;DHT22;23398;50.928;7.084;2024-03-17T08:03:39;21.80;62.30
37560;DHT22;23398;50.928;7.084;2024-03-17T08:06:06;22.30;61.50
37560;DHT22;23398;50.928;7.084;2024-03-17T08:08:32;22.80;60.70
37560;DHT22;23398;50.928;7.084;2024-03-17T08:10:58;23.30;59.80
37560;DHT22;23398;50.928;7.084;2024-03-17T08:13:24;23.90;59.00
37560;DHT22;23398;50.928;7.084;2024-03-17T08:16:04;24.40;57.10
37560;DHT22;23398;50.928;7.084;2024-03-17T08:18:36;24.90;55.70
37560;DHT22;23398;50.928;7.084;2024-03-17T08:21:03;25.50;55.90
37560;DHT22;23398;50.928;7.084;2024-03-17T08:23:32;25.90;54.70
37560;DHT22;23398;50.928;7.084;2024-03-17T08:26:00;26.30;53.50
37560;DHT22;23398;50.928;7.084;2024-03-17T08:28:26;26.60;52.40
37560;DHT22;23398;50.928;7.084;2024-03-17T08:30:57;26.80;51.30
37560;DHT22;23398;50.928;7.084;2024-03-17T08:33:23;27.00;50.70
37560;DHT22;23398;50.928;7.084;2024-03-17T08:38:25;27.40;48.70
37560;DHT22;23398;50.928;7.084;2024-03-17T08:40:52;27.50;47.90
37560;DHT22;23398;50.928;7.084;2024-03-17T08:43:18;27.40;46.80
37560;DHT22;23398;50.928;7.084;2024-03-17T08:45:45;27.30;46.10
37560;DHT22;23398;50.928;7.084;2024-03-17T08:48:10;27.00;46.30
37560;DHT22;23398;50.928;7.084;2024-03-17T08:50:36;26.70;46.70
37560;DHT22;23398;50.928;7.084;2024-03-17T08:53:02;26.60;47.30
37560;DHT22;23398;50.928;7.084;2024-03-17T08:55:28;26.50;47.70
37560;DHT22;23398;50.928;7.084;2024-03-17T08:57:53;26.40;47.20
37560;DHT22;23398;50.928;7.084;2024-03-17T09:00:19;26.40;46.70
37560;DHT22;23398;50.928;7.084;2024-03-17T09:02:45;26.40;46.60
37560;DHT22;23398;50.928;7.084;2024-03-17T09:05:10;26.20;45.40
37560;DHT22;23398;50.928;7.084;2024-03-17T09:07:38;25.90;45.30
37560;DHT22;23398;50.928;7.084;2024-03-17T09:10:04;25.40;44.80
37560;DHT22;23398;50.928;7.084;2024-03-17T09:12:29;24.90;45.00
37560;DHT22;23398;50.928;7.084;2024-03-17T09:14:55;24.40;45.20
37560;DHT22;23398;50.928;7.084;2024-03-17T09:17:20;23.90;45.30
37560;DHT22;23398;50.928;7.084;2024-03-17T09:19:46;23.40;46.00
37560;DHT22;23398;50.928;7.084;2024-03-17T09:22:13;22.90;46.60
37560;DHT22;23398;50.928;7.084;2024-03-17T09:24:39;22.50;47.30
37560;DHT22;23398;50.928;7.084;2024-03-17T09:27:04;22.30;48.40
37560;DHT22;23398;50.928;7.084;2024-03-17T09:29:30;22.20;48.70
37560;DHT22;23398;50.928;7.084;2024-03-17T09:31:56;22.20;48.80
37560;DHT22;23398;50.928;7.084;2024-03-17T09:34:22;22.20;48.60
37560;DHT22;23398;50.928;7.084;2024-03-17T09:36:47;22.20;48.60
37560;DHT22;23398;50.928;7.084;2024-03-17T09:39:13;22.10;48.30
37560;DHT22;23398;50.928;7.084;2024-03-17T09:41:40;22.00;48.00
37560;DHT22;23398;50.928;7.084;2024-03-17T09:44:09;21.80;47.90
37560;DHT22;23398;50.928;7.084;2024-03-17T09:46:35;21.60;48.10
37560;DHT22;23398;50.928;7.084;2024-03-17T09:49:01;21.40;48.50
37560;DHT22;23398;50.928;7.084;2024-03-17T09:51:27;21.20;48.90
37560;DHT22;23398;50.928;7.084;2024-03-17T09:53:52;21.00;49.10
37560;DHT22;23398;50.928;7.084;2024-03-17T09:56:19;20.90;49.40
37560;DHT22;23398;50.928;7.084;2024-03-17T09:58:47;20.90;49.90
37560;DHT22;23398;50.928;7.084;2024-03-17T10:01:13;20.90;50.20
37560;DHT22;23398;50.928;7.084;2024-03-17T10:06:29;21.10;50.20
37560;DHT22;23398;50.928;7.084;2024-03-17T10:09:00;21.20;50.50
37560;DHT22;23398;50.928;7.084;2024-03-17T10:11:33;21.30;50.80
37560;DHT22;23398;50.928;7.084;2024-03-17T10:14:08;21.50;50.80
37560;DHT22;23398;50.928;7.084;2024-03-17T10:16:35;21.80;51.10
37560;DHT22;23398;50.928;7.084;2024-03-17T10:19:11;22.10;51.00
37560;DHT22;23398;50.928;7.084;2024-03-17T10:21:38;22.40;50.60
37560;DHT22;23398;50.928;7.084;2024-03-17T10:24:12;22.70;50.40
37560;DHT22;23398;50.928;7.084;2024-03-17T10:26:47;22.90;49.60
37560;DHT22;23398;50.928;7.084;2024-03-17T10:29:32;23.10;49.00
37560;DHT22;23398;50.928;7.084;2024-03-17T10:32:17;23.10;48.30
37560;DHT22;23398;50.928;7.084;2024-03-17T10:34:45;23.10;48.30
37560;DHT22;23398;50.928;7.084;2024-03-17T10:37:14;23.00;48.20
37560;DHT22;23398;50.928;7.084;2024-03-17T10:39:41;22.90;48.00
37560;DHT22;23398;50.928;7.084;2024-03-17T10:42:11;22.80;48.00
37560;DHT22;23398;50.928;7.084;2024-03-17T10:44:40;22.70;47.80
37560;DHT22;23398;50.928;7.084;2024-03-17T10:47:07;22.50;48.10
37560;DHT22;23398;50.928;7.084;2024-03-17T10:49:37;22.30;48.10
37560;DHT22;23398;50.928;7.084;2024-03-17T10:52:16;22.10;48.30
37560;DHT22;23398;50.928;7.084;2024-03-17T10:54:51;22.00;48.20
37560;DHT22;23398;50.928;7.084;2024-03-17T11:00:03;21.90;48.50
37560;DHT22;23398;50.928;7.084;2024-03-17T11:02:31;21.80;48.90
37560;DHT22;23398;50.928;7.084;2024-03-17T11:05:05;21.70;49.20
37560;DHT22;23398;50.928;7.084;2024-03-17T11:07:34;21.70;49.50
37560;DHT22;23398;50.928;7.084;2024-03-17T11:10:03;21.70;49.60
37560;DHT22;23398;50.928;7.084;2024-03-17T11:18:33;21.80;49.30
37560;DHT22;23398;50.928;7.084;2024-03-17T11:20:37;21.80;49.50
37560;DHT22;23398;50.928;7.084;2024-03-17T11:23:04;21.80;49.50
37560;DHT22;23398;50.928;7.084;2024-03-17T11:25:40;21.70;49.50
37560;DHT22;23398;50.928;7.084;2024-03-17T11:28:08;21.70;49.00
37560;DHT22;23398;50.928;7.084;2024-03-17T11:47:01;21.40;49.30
37560;DHT22;23398;50.928;7.084;2024-03-17T11:51:57;21.30;49.70
37560;DHT22;23398;50.928;7.084;2024-03-17T11:54:23;21.30;49.70
37560;DHT22;23398;50.928;7.084;2024-03-17T11:56:51;21.20;49.60
37560;DHT22;23398;50.928;7.084;2024-03-17T11:59:21;21.20;50.10
37560;DHT22;23398;50.928;7.084;2024-03-17T12:01:48;21.20;50.10
37560;DHT22;23398;50.928;7.084;2024-03-17T12:04:15;21.20;50.10
37560;DHT22;23398;50.928;7.084;2024-03-17T12:09:24;21.30;50.00
37560;DHT22;23398;50.928;7.084;2024-03-17T12:14:26;21.30;49.50
37560;DHT22;23398;50.928;7.084;2024-03-17T12:16:56;21.40;49.70
37560;DHT22;23398;50.928;7.084;2024-03-17T12:19:23;21.30;49.40
37560;DHT22;23398;50.928;7.084;2024-03-17T12:21:50;21.30;49.60
37560;DHT22;23398;50.928;7.084;2024-03-17T12:24:24;21.30;49.50
37560;DHT22;23398;50.928;7.084;2024-03-17T12:26:51;21.20;49.60
37560;DHT22;23398;50.928;7.084;2024-03-17T12:29:28;21.20;49.70
37560;DHT22;23398;50.928;7.084;2024-03-17T12:31:57;21.10;49.40
37560;DHT22;23398;50.928;7.084;2024-03-17T12:34:26;21.00;49.50
37560;DHT22;23398;50.928;7.084;2024-03-17T12:36:53;20.90;49.40
37560;DHT22;23398;50.928;7.084;2024-03-17T12:39:24;20.90;49.40
37560;DHT22;23398;50.928;7.084;2024-03-17T12:42:07;20.80;49.60
37560;DHT22;23398;50.928;7.084;2024-03-17T12:44:46;20.80;49.60
37560;DHT22;23398;50.928;7.084;2024-03-17T12:47:20;20.80;49.70
37560;DHT22;23398;50.928;7.084;2024-03-17T12:49:47;20.80;49.70
37560;DHT22;23398;50.928;7.084;2024-03-17T12:55:00;20.70;49.80
37560;DHT22;23398;50.928;7.084;2024-03-17T12:57:48;20.70;50.00
37560;DHT22;23398;50.928;7.084;2024-03-17T13:00:32;20.70;50.30
37560;DHT22;23398;50.928;7.084;2024-03-17T13:02:58;20.70;50.40
37560;DHT22;23398;50.928;7.084;2024-03-17T13:05:24;20.70;50.20
37560;DHT22;23398;50.928;7.084;2024-03-17T13:07:50;20.70;50.00
37560;DHT22;23398;50.928;7.084;2024-03-17T13:10:20;20.80;50.10
37560;DHT22;23398;50.928;7.084;2024-03-17T13:12:46;20.70;49.70
37560;DHT22;23398;50.928;7.084;2024-03-17T13:15:14;20.70;49.70
37560;DHT22;23398;50.928;7.084;2024-03-17T13:17:44;20.70;49.60
37560;DHT22;23398;50.928;7.084;2024-03-17T13:20:14;20.60;49.50
37560;DHT22;23398;50.928;7.084;2024-03-17T13:22:45;20.60;49.50
37560;DHT22;23398;50.928;7.084;2024-03-17T13:25:18;20.60;49.70
37560;DHT22;23398;50.928;7.084;2024-03-17T13:27:46;20.60;49.60
37560;DHT22;23398;50.928;7.084;2024-03-17T13:30:13;20.60;49.70
37560;DHT22;23398;50.928;7.084;2024-03-17T13:32:39;20.60;49.90
37560;DHT22;23398;50.928;7.084;2024-03-17T13:35:06;20.60;50.00
37560;DHT22;23398;50.928;7.084;2024-03-17T13:37:38;20.60;50.00
37560;DHT22;23398;50.928;7.084;2024-03-17T13:40:04;20.60;49.90
37560;DHT22;23398;50.928;7.084;2024-03-17T13:42:30;20.50;49.90
37560;DHT22;23398;50.928;7.084;2024-03-17T13:44:56;20.50;50.00
37560;DHT22;23398;50.928;7.084;2024-03-17T13:47:21;20.40;50.10
37560;DHT22;23398;50.928;7.084;2024-03-17T13:49:47;20.40;50.20
37560;DHT22;23398;50.928;7.084;2024-03-17T13:52:13;20.50;50.40
37560;DHT22;23398;50.928;7.084;2024-03-17T13:54:39;20.30;50.40
37560;DHT22;23398;50.928;7.084;2024-03-17T13:57:04;20.30;50.50
37560;DHT22;23398;50.928;7.084;2024-03-17T13:59:30;20.30;50.50
37560;DHT22;23398;50.928;7.084;2024-03-17T14:01:57;20.20;50.40
37560;DHT22;23398;50.928;7.084;2024-03-17T14:04:23;20.20;50.50
37560;DHT22;23398;50.928;7.084;2024-03-17T14:06:48;20.10;50.60
37560;DHT22;23398;50.928;7.084;2024-03-17T14:09:15;20.10;50.70
37560;DHT22;23398;50.928;7.084;2024-03-17T14:11:43;20.00;50.60
37560;DHT22;23398;50.928;7.084;2024-03-17T14:14:10;20.00;50.70
37560;DHT22;23398;50.928;7.084;2024-03-17T14:16:36;20.00;50.80
37560;DHT22;23398;50.928;7.084;2024-03-17T14:19:01;19.90;50.70
37560;DHT22;23398;50.928;7.084;2024-03-17T14:21:28;19.90;50.80
37560;DHT22;23398;50.928;7.084;2024-03-17T14:23:54;19.90;50.90
37560;DHT22;23398;50.928;7.084;2024-03-17T14:26:20;19.80;50.90
37560;DHT22;23398;50.928;7.084;2024-03-17T14:28:47;19.80;51.00
37560;DHT22;23398;50.928;7.084;2024-03-17T14:31:12;19.70;51.20
37560;DHT22;23398;50.928;7.084;2024-03-17T14:33:38;19.70;51.20
37560;DHT22;23398;50.928;7.084;2024-03-17T14:36:03;19.70;51.30
37560;DHT22;23398;50.928;7.084;2024-03-17T14:38:29;19.70;51.40
37560;DHT22;23398;50.928;7.084;2024-03-17T14:40:55;19.70;51.50
37560;DHT22;23398;50.928;7.084;2024-03-17T14:43:21;19.70;52.20
37560;DHT22;23398;50.928;7.084;2024-03-17T14:45:48;19.70;51.70
37560;DHT22;23398;50.928;7.084;2024-03-17T14:48:13;19.70;51.60
37560;DHT22;23398;50.928;7.084;2024-03-17T14:50:39;19.70;51.50
37560;DHT22;23398;50.928;7.084;2024-03-17T14:53:06;19.70;52.20
37560;DHT22;23398;50.928;7.084;2024-03-17T14:55:31;19.70;51.50
37560;DHT22;23398;50.928;7.084;2024-03-17T14:57:57;19.80;51.60
37560;DHT22;23398;50.928;7.084;2024-03-17T15:00:23;19.80;51.60
37560;DHT22;23398;50.928;7.084;2024-03-17T15:02:51;19.90;51.70
37560;DHT22;23398;50.928;7.084;2024-03-17T15:05:18;20.10;51.80
37560;DHT22;23398;50.928;7.084;2024-03-17T15:07:51;20.00;51.60
37560;DHT22;23398;50.928;7.084;2024-03-17T15:10:17;20.10;51.60
37560;DHT22;23398;50.928;7.084;2024-03-17T15:12:49;20.10;51.50
37560;DHT22;23398;50.928;7.084;2024-03-17T15:15:15;20.20;51.50
37560;DHT22;23398;50.928;7.084;2024-03-17T15:17:41;20.30;51.70
37560;DHT22;23398;50.928;7.084;2024-03-17T15:20:10;20.40;51.60
37560;DHT22;23398;50.928;7.084;2024-03-17T15:22:44;20.50;51.60
37560;DHT22;23398;50.928;7.084;2024-03-17T15:25:10;20.70;51.50
37560;DHT22;23398;50.928;7.084;2024-03-17T15:27:37;20.80;51.20
37560;DHT22;23398;50.928;7.084;2024-03-17T15:30:03;20.80;50.80
37560;DHT22;23398;50.928;7.084;2024-03-17T15:32:29;20.90;50.70
37560;DHT22;23398;50.928;7.084;2024-03-17T15:34:55;20.90;50.60
37560;DHT22;23398;50.928;7.084;2024-03-17T15:37:23;20.90;50.30
37560;DHT22;23398;50.928;7.084;2024-03-17T15:39:49;20.90;50.40
37560;DHT22;23398;50.928;7.084;2024-03-17T15:42:14;21.00;50.30
37560;DHT22;23398;50.928;7.084;2024-03-17T15:44:40;20.90;50.10
37560;DHT22;23398;50.928;7.084;2024-03-17T15:47:05;20.80;50.00
37560;DHT22;23398;50.928;7.084;2024-03-17T15:49:31;20.70;50.10
37560;DHT22;23398;50.928;7.084;2024-03-17T15:51:56;20.60;50.00
37560;DHT22;23398;50.928;7.084;2024-03-17T15:54:23;20.50;50.00
37560;DHT22;23398;50.928;7.084;2024-03-17T15:56:48;20.40;50.00
37560;DHT22;23398;50.928;7.084;2024-03-17T15:59:14;20.30;50.20
37560;DHT22;23398;50.928;7.084;2024-03-17T16:01:40;20.10;50.20
37560;DHT22;23398;50.928;7.084;2024-03-17T16:04:06;20.00;50.30
37560;DHT22;23398;50.928;7.084;2024-03-17T16:06:31;19.80;50.40
37560;DHT22;23398;50.928;7.084;2024-03-17T16:08:59;19.70;50.60
37560;DHT22;23398;50.928;7.084;2024-03-17T16:11:27;19.60;50.80
37560;DHT22;23398;50.928;7.084;2024-03-17T16:13:58;19.50;51.00
37560;DHT22;23398;50.928;7.084;2024-03-17T16:16:25;19.40;51.20
37560;DHT22;23398;50.928;7.084;2024-03-17T16:18:51;19.30;51.40